Time;durP1;ratioP1;P1;durP2;ratioP2;P2;SDS_P1;SDS_P2;PMS_P1;PMS_P2;Temp;Humidity;BMP_temperature;BMP_pressure;BME280_temperature;BME280_humidity;BME280_pressure;Samples;Min_cycle;Max_cycle;Signal;HPM_P1;HPM_P2
2024/03/17 00:02:22;;;;;;;1.97;1.13;;;22.80;56.00;;;;;;5030523;28;20263;-69
2024/03/17 00:04:48;;;;;;;2.20;1.40;;;22.80;56.00;;;;;;5030402;28;20433;-70
2024/03/17 00:07:14;;;;;;;2.60;1.30;;;22.80;56.00;;;;;;5030453;28;20204;-68
2024/03/17 00:09:41;;;;;;;1.67;1.30;;;22.80;56.00;;;;;;5030381;28;20414;-70
2024/03/17 00:12:07;;;;;;;1.50;1.17;;;22.80;56.00;;;;;;5030444;28;20172;-67
2024/03/17 00:14:34;;;;;;;2.77;1.70;;;22.80;56.00;;;;;;5033883;28;20877;-69
2024/03/17 00:17:00;;;;;;;1.93;1.00;;;22.80;56.00;;;;;;5034425;28;20913;-69
2024/03/17 00:19:26;;;;;;;1.63;1.13;;;22.80;56.00;;;;;;5034399;28;20414;-70
2024/03/17 00:21:53;;;;;;;1.87;1.63;;;22.80;56.00;;;;;;5034257;28;20813;-69
2024/03/17 00:24:19;;;;;;;1.80;1.00;;;22.80;56.00;;;;;;5034160;28;20247;-70
2024/03/17 00:26:46;;;;;;;1.20;1.00;;;22.80;56.00;;;;;;5034435;28;20453;-69
2024/03/17 00:29:11;;;;;;;2.50;1.33;;;22.80;55.90;;;;;;5034203;28;20913;-69
2024/03/17 00:31:37;;;;;;;2.47;1.40;;;22.80;55.90;;;;;;5034535;28;20410;-69
2024/03/17 00:34:04;;;;;;;1.50;1.10;;;22.80;55.90;;;;;;5034123;28;20198;-69
2024/03/17 00:36:30;;;;;;;1.90;1.30;;;22.80;55.90;;;;;;5034120;28;20191;-69
2024/03/17 00:38:55;;;;;;;1.93;1.30;;;22.80;55.90;;;;;;5034275;28;20410;-70
2024/03/17 00:41:21;;;;;;;1.90;1.20;;;22.80;55.90;;;;;;5033986;28;20425;-70
2024/03/17 00:43:47;;;;;;;2.57;1.13;;;22.80;55.90;;;;;;5033940;28;20182;-69
2024/03/17 00:46:13;;;;;;;2.13;1.20;;;22.80;55.90;;;;;;5033714;28;20196;-68
2024/03/17 00:48:39;;;;;;;1.90;1.10;;;22.80;55.90;;;;;;5033820;28;20557;-69
2024/03/17 00:51:05;;;;;;;2.27;1.27;;;22.70;55.80;;;;;;5033826;28;20298;-69
2024/03/17 00:53:30;;;;;;;1.70;0.90;;;22.70;55.80;;;;;;5033775;28;20418;-70
2024/03/17 00:56:00;;;;;;;1.30;1.20;;;22.70;55.80;;;;;;5033869;28;20548;-69
2024/03/17 00:58:26;;;;;;;1.30;1.07;;;22.70;55.80;;;;;;5033706;28;20210;-70
2024/03/17 01:00:52;;;;;;;1.43;1.10;;;22.70;55.80;;;;;;5033640;28;20422;-69
2024/03/17 01:03:18;;;;;;;2.87;1.10;;;22.70;55.80;;;;;;5033670;28;20186;-70
2024/03/17 01:05:44;;;;;;;1.60;1.20;;;22.70;55.80;;;;;;5033444;28;20642;-69
2024/03/17 01:08:20;;;;;;;1.40;1.00;;;22.70;55.80;;;;;;5033693;28;20895;-69
2024/03/17 01:10:49;;;;;;;2.37;1.23;;;22.70;56.30;;;;;;5033467;28;20762;-69
2024/03/17 01:13:16;;;;;;;1.73;1.00;;;22.70;55.80;;;;;;5033429;28;20436;-69
2024/03/17 01:15:42;;;;;;;1.60;1.10;;;22.70;55.80;;;;;;5033283;28;20435;-70
2024/03/17 01:18:07;;;;;;;2.50;1.33;;;22.70;55.80;;;;;;5033364;28;20924;-69
2024/03/17 01:20:36;;;;;;;1.50;1.23;;;22.70;55.80;;;;;;5033265;28;20406;-69
2024/03/17 01:23:01;;;;;;;3.00;1.20;;;22.70;55.80;;;;;;5015398;28;20561;-70
2024/03/17 01:25:29;;;;;;;1.70;1.13;;;22.70;55.90;;;;;;5033125;28;20464;-68
2024/03/17 01:27:55;;;;;;;1.60;1.50;;;22.70;55.80;;;;;;5032999;28;20268;-69
2024/03/17 01:30:20;;;;;;;1.40;1.10;;;22.70;55.90;;;;;;5033085;28;20410;-69
2024/03/17 01:32:46;;;;;;;1.33;1.00;;;22.70;55.90;;;;;;5033066;28;20426;-69
2024/03/17 01:35:12;;;;;;;1.10;0.90;;;22.70;55.90;;;;;;5033240;28;20199;-69
2024/03/17 01:37:38;;;;;;;1.87;1.30;;;22.70;55.90;;;;;;5033008;28;20269;-69
2024/03/17 01:40:10;;;;;;;1.40;0.90;;;22.70;55.90;;;;;;5033185;28;20183;-68
2024/03/17 01:42:37;;;;;;;1.47;1.07;;;22.70;55.90;;;;;;5032934;28;20399;-69
2024/03/17 01:45:28;;;;;;;1.10;0.80;;;22.70;55.90;;;;;;5032729;28;20453;-69
2024/03/17 01:47:57;;;;;;;1.60;1.27;;;22.60;55.70;;;;;;5032810;28;20849;-69
2024/03/17 01:50:30;;;;;;;2.47;1.33;;;22.60;55.80;;;;;;5032993;28;20755;-69
2024/03/17 01:53:00;;;;;;;1.37;1.10;;;22.60;55.80;;;;;;5032804;28;20406;-70
2024/03/17 01:55:27;;;;;;;2.20;1.30;;;22.60;55.80;;;;;;5032623;28;20433;-69
2024/03/17 01:57:53;;;;;;;1.67;1.17;;;22.60;55.80;;;;;;5032571;28;20924;-70
2024/03/17 02:00:19;;;;;;;1.47;1.10;;;22.60;55.80;;;;;;5032522;28;20464;-70
2024/03/17 02:02:44;;;;;;;1.83;1.00;;;22.60;55.80;;;;;;5032540;28;20418;-69
2024/03/17 02:05:10;;;;;;;2.47;1.20;;;22.60;55.80;;;;;;5032669;28;20443;-70
2024/03/17 02:07:36;;;;;;;2.70;1.13;;;22.60;55.90;;;;;;5032397;28;20675;-70
2024/03/17 02:10:03;;;;;;;1.50;0.93;;;22.60;55.80;;;;;;5032392;28;20702;-69
2024/03/17 02:12:30;;;;;;;1.63;0.90;;;22.60;56.40;;;;;;5032325;28;20199;-69
2024/03/17 02:14:57;;;;;;;1.20;0.90;;;22.60;55.80;;;;;;5032257;28;20438;-70
2024/03/17 02:17:25;;;;;;;1.63;1.23;;;22.60;55.80;;;;;;5032281;28;20432;-70
2024/03/17 02:19:51;;;;;;;1.50;1.10;;;22.60;55.80;;;;;;5032151;28;20496;-69
2024/03/17 02:22:17;;;;;;;1.67;1.20;;;22.60;55.80;;;;;;5032442;28;20457;-69
2024/03/17 02:24:43;;;;;;;2.87;1.20;;;22.60;55.80;;;;;;5032073;28;20430;-69
2024/03/17 02:27:08;;;;;;;1.30;0.97;;;22.60;55.80;;;;;;5031892;28;20500;-70
2024/03/17 02:29:36;;;;;;;1.43;1.13;;;22.60;55.80;;;;;;5031907;28;20406;-69
2024/03/17 02:32:06;;;;;;;2.80;1.03;;;22.60;55.80;;;;;;5032162;28;20175;-70
2024/03/17 02:34:36;;;;;;;1.63;1.00;;;22.60;55.90;;;;;;5032420;28;20914;-70
2024/03/17 02:37:03;;;;;;;1.70;1.13;;;22.60;55.80;;;;;;5031406;28;20426;-70
2024/03/17 02:39:35;;;;;;;1.67;1.20;;;22.60;55.90;;;;;;5031808;28;20841;-71
2024/03/17 02:42:02;;;;;;;1.23;1.00;;;22.60;55.90;;;;;;5032013;28;20442;-69
2024/03/17 02:44:30;;;;;;;1.50;0.97;;;22.60;55.90;;;;;;5031443;28;20461;-69
2024/03/17 02:46:56;;;;;;;3.40;1.30;;;22.60;55.90;;;;;;5031590;28;20455;-69
2024/03/17 02:49:22;;;;;;;1.60;1.20;;;22.60;55.90;;;;;;5031504;28;20989;-69
2024/03/17 02:51:47;;;;;;;1.37;1.10;;;22.60;55.90;;;;;;5031555;28;20426;-69
2024/03/17 02:54:13;;;;;;;1.37;0.90;;;22.60;55.90;;;;;;5031507;28;20252;-70
2024/03/17 02:56:38;;;;;;;1.40;1.00;;;22.60;56.30;;;;;;5013768;28;20658;-69
2024/03/17 02:59:04;;;;;;;0.93;0.80;;;22.60;55.90;;;;;;5031650;28;20176;-69
2024/03/17 03:01:30;;;;;;;1.63;1.17;;;22.60;55.90;;;;;;5031346;28;20198;-69
2024/03/17 03:03:55;;;;;;;1.57;1.10;;;22.60;55.90;;;;;;5031471;28;20206;-68
2024/03/17 03:06:21;;;;;;;1.87;1.10;;;22.60;55.90;;;;;;5031494;28;20176;-70
2024/03/17 03:08:49;;;;;;;2.10;1.13;;;22.50;55.90;;;;;;5031237;28;20174;-69
2024/03/17 03:11:16;;;;;;;3.33;0.83;;;22.50;55.80;;;;;;5031207;28;20613;-69
2024/03/17 03:13:43;;;;;;;1.50;1.10;;;22.50;55.90;;;;;;5031106;28;20423;-68
2024/03/17 03:16:13;;;;;;;1.60;1.07;;;22.50;55.90;;;;;;5031110;28;20426;-69
2024/03/17 03:18:39;;;;;;;1.73;1.00;;;22.50;55.90;;;;;;5031127;28;20906;-69
2024/03/17 03:21:05;;;;;;;1.20;1.07;;;22.50;55.90;;;;;;5031076;28;20956;-69
2024/03/17 03:23:32;;;;;;;1.70;1.03;;;22.50;56.00;;;;;;5030961;28;20518;-70
2024/03/17 03:26:03;;;;;;;1.77;1.10;;;22.50;55.90;;;;;;5030884;28;20462;-70
2024/03/17 03:28:31;;;;;;;1.37;0.90;;;22.50;55.90;;;;;;5030928;28;20541;-69
2024/03/17 03:30:57;;;;;;;2.47;1.13;;;22.50;55.90;;;;;;5030842;28;20930;-69
2024/03/17 03:33:24;;;;;;;1.50;1.00;;;22.50;55.90;;;;;;5030879;28;20406;-69
2024/03/17 03:35:50;;;;;;;1.23;1.10;;;22.50;55.90;;;;;;5012932;28;20430;-70
2024/03/17 03:38:17;;;;;;;1.57;1.00;;;22.50;55.90;;;;;;5030840;28;20411;-70
2024/03/17 03:40:43;;;;;;;1.27;1.00;;;22.50;55.90;;;;;;5031061;28;20935;-70
2024/03/17 03:43:09;;;;;;;1.20;0.90;;;22.50;55.90;;;;;;5030755;28;20497;-69
2024/03/17 03:45:36;;;;;;;1.27;1.17;;;22.50;56.50;;;;;;5030618;28;20538;-69
2024/03/17 03:48:02;;;;;;;1.97;1.03;;;22.50;55.90;;;;;;5029696;28;20468;-70
2024/03/17 03:50:29;;;;;;;1.63;1.00;;;22.50;55.90;;;;;;5030637;28;20406;-69
2024/03/17 03:52:54;;;;;;;1.57;1.47;;;22.50;55.80;;;;;;5012972;28;20419;-69
2024/03/17 03:55:20;;;;;;;1.77;0.90;;;22.50;55.90;;;;;;5030494;28;20496;-70
2024/03/17 03:57:47;;;;;;;1.23;0.80;;;22.50;55.90;;;;;;5030571;28;20191;-69
2024/03/17 04:00:16;;;;;;;1.70;1.00;;;22.50;55.90;;;;;;5030806;28;20183;-69
2024/03/17 04:02:44;;;;;;;1.20;0.90;;;22.50;55.90;;;;;;5030550;28;20445;-69
2024/03/17 04:05:13;;;;;;;1.23;0.97;;;22.50;55.90;;;;;;5030411;28;20440;-70
2024/03/17 04:07:39;;;;;;;1.20;1.00;;;22.50;55.90;;;;;;5030373;28;20462;-69
2024/03/17 04:10:06;;;;;;;1.70;1.17;;;22.50;55.90;;;;;;5030432;28;20465;-69
2024/03/17 04:12:31;;;;;;;1.40;1.10;;;22.50;55.90;;;;;;5030668;28;20418;-70
2024/03/17 04:14:57;;;;;;;1.40;1.20;;;22.50;55.90;;;;;;5030488;28;20798;-69
2024/03/17 04:17:23;;;;;;;1.33;1.10;;;22.50;55.90;;;;;;5030385;28;20183;-69
2024/03/17 04:19:53;;;;;;;1.57;1.00;;;22.50;55.90;;;;;;5030354;28;20414;-70
2024/03/17 04:22:21;;;;;;;1.43;1.10;;;22.50;55.90;;;;;;5030353;28;20182;-70
2024/03/17 04:24:53;;;;;;;1.50;0.83;;;22.50;55.90;;;;;;5030280;28;20873;-69
2024/03/17 04:27:19;;;;;;;2.73;0.93;;;22.50;56.00;;;;;;5012421;28;20492;-69
2024/03/17 04:29:47;;;;;;;1.23;0.80;;;22.50;56.00;;;;;;5030279;28;20410;-69
2024/03/17 04:32:14;;;;;;;1.10;0.93;;;22.50;55.90;;;;;;5030444;28;20835;-69
2024/03/17 04:34:39;;;;;;;1.50;1.10;;;22.50;56.00;;;;;;5030106;28;20437;-69
2024/03/17 04:37:05;;;;;;;2.57;1.10;;;22.50;56.00;;;;;;5030195;28;20411;-69
2024/03/17 04:39:31;;;;;;;1.30;1.00;;;22.50;55.90;;;;;;5030106;28;20172;-70
2024/03/17 04:41:57;;;;;;;1.73;1.00;;;22.50;55.90;;;;;;5030149;28;20260;-70
2024/03/17 04:44:23;;;;;;;1.97;0.93;;;22.40;55.90;;;;;;5029852;28;20533;-69
2024/03/17 04:46:48;;;;;;;1.50;1.00;;;22.40;55.90;;;;;;5030122;28;20250;-69
2024/03/17 04:49:14;;;;;;;1.20;1.00;;;22.50;56.00;;;;;;5030129;28;20168;-69
2024/03/17 04:51:40;;;;;;;1.50;1.00;;;22.50;55.90;;;;;;5030095;28;20230;-70
2024/03/17 04:54:07;;;;;;;1.20;0.90;;;22.40;55.90;;;;;;5030037;28;20215;-69
2024/03/17 04:56:32;;;;;;;1.30;0.90;;;22.40;55.90;;;;;;5030106;28;20174;-70
2024/03/17 04:58:58;;;;;;;1.30;0.80;;;22.40;55.90;;;;;;5030876;28;20414;-70
2024/03/17 05:01:24;;;;;;;1.63;0.90;;;22.40;55.90;;;;;;5033734;28;20182;-69
2024/03/17 05:03:53;;;;;;;1.57;1.13;;;22.40;55.90;;;;;;5033529;28;20168;-69
2024/03/17 05:06:18;;;;;;;1.00;0.80;;;22.40;55.90;;;;;;5033458;28;20794;-69
2024/03/17 05:08:44;;;;;;;1.33;0.70;;;22.40;55.90;;;;;;5033490;28;20442;-69
2024/03/17 05:11:11;;;;;;;1.60;1.00;;;22.40;55.90;;;;;;5033459;28;20172;-69
2024/03/17 05:13:40;;;;;;;1.50;1.10;;;22.40;55.90;;;;;;5033257;28;20167;-69
2024/03/17 05:16:05;;;;;;;2.03;1.17;;;22.40;55.90;;;;;;5033382;28;20399;-70
2024/03/17 05:18:32;;;;;;;2.97;0.93;;;22.40;55.90;;;;;;5033370;28;20422;-69
2024/03/17 05:21:06;;;;;;;1.43;0.90;;;22.40;55.90;;;;;;5033183;28;20203;-69
2024/03/17 05:23:33;;;;;;;1.20;0.90;;;22.40;55.90;;;;;;5033177;28;20417;-70
2024/03/17 05:26:00;;;;;;;1.20;0.90;;;22.40;55.90;;;;;;5033135;28;20426;-69
2024/03/17 05:28:27;;;;;;;1.87;1.13;;;22.40;55.90;;;;;;5033044;28;20541;-69
2024/03/17 05:30:53;;;;;;;1.60;1.00;;;22.40;55.90;;;;;;5033020;28;20411;-69
2024/03/17 05:33:21;;;;;;;1.70;1.10;;;22.40;55.90;;;;;;5032968;28;20489;-69
2024/03/17 05:36:02;;;;;;;2.43;1.17;;;22.40;55.90;;;;;;5015068;28;21020;-68
2024/03/17 05:38:28;;;;;;;1.23;0.80;;;22.40;55.90;;;;;;5033019;28;20739;-69
2024/03/17 05:41:02;;;;;;;1.53;0.93;;;22.40;55.90;;;;;;5033058;28;20480;-70
2024/03/17 05:43:29;;;;;;;2.03;1.33;;;22.40;55.90;;;;;;5033086;28;20501;-69
2024/03/17 05:45:58;;;;;;;1.60;1.00;;;22.40;56.00;;;;;;5032723;28;20515;-69
2024/03/17 05:48:26;;;;;;;1.20;1.03;;;22.40;55.90;;;;;;5032662;28;20446;-69
2024/03/17 05:50:52;;;;;;;1.47;0.90;;;22.40;55.90;;;;;;5032943;28;20489;-69
2024/03/17 05:53:20;;;;;;;1.50;1.10;;;22.40;55.90;;;;;;5032943;28;20419;-69
2024/03/17 05:55:46;;;;;;;1.47;0.90;;;22.40;55.90;;;;;;5032545;28;20430;-70
2024/03/17 05:58:12;;;;;;;1.10;0.87;;;22.40;56.00;;;;;;5014645;28;20426;-69
2024/03/17 06:00:39;;;;;;;1.10;0.83;;;22.40;56.30;;;;;;5032612;28;20226;-69
2024/03/17 06:03:06;;;;;;;1.60;0.90;;;22.40;55.90;;;;;;5032434;28;20178;-69
2024/03/17 06:05:36;;;;;;;1.40;1.00;;;22.40;55.90;;;;;;5032254;28;20826;-69
2024/03/17 06:08:04;;;;;;;1.17;0.87;;;22.40;56.00;;;;;;5032201;28;20454;-70
2024/03/17 06:10:30;;;;;;;1.53;0.97;;;22.40;56.00;;;;;;5031390;28;20951;-68
2024/03/17 06:12:57;;;;;;;1.00;0.90;;;22.40;56.00;;;;;;5032209;28;20403;-69
2024/03/17 06:15:23;;;;;;;0.90;0.80;;;22.40;56.00;;;;;;5032075;28;20580;-67
2024/03/17 06:17:51;;;;;;;1.03;0.83;;;22.40;56.00;;;;;;5032115;28;20413;-70
2024/03/17 06:20:20;;;;;;;1.20;0.90;;;22.40;56.00;;;;;;5032137;28;20475;-70
2024/03/17 06:22:46;;;;;;;1.20;0.90;;;22.40;56.00;;;;;;5031905;28;20422;-69
2024/03/17 06:25:15;;;;;;;1.70;1.00;;;22.40;56.00;;;;;;5032121;28;20434;-69
2024/03/17 06:27:42;;;;;;;1.40;0.93;;;22.40;56.00;;;;;;5031753;28;20980;-69
2024/03/17 06:30:14;;;;;;;1.20;0.87;;;22.40;56.00;;;;;;5031853;28;20425;-70
2024/03/17 06:32:45;;;;;;;1.40;0.80;;;22.40;55.90;;;;;;5031898;28;20403;-69
2024/03/17 06:35:15;;;;;;;1.00;0.77;;;22.40;56.00;;;;;;5031703;28;20466;-69
2024/03/17 06:37:41;;;;;;;2.20;1.20;;;22.40;55.90;;;;;;5031910;28;20414;-67
2024/03/17 06:40:11;;;;;;;1.00;0.80;;;22.40;55.90;;;;;;5031664;28;20461;-70
2024/03/17 06:42:37;;;;;;;1.60;1.00;;;22.40;56.00;;;;;;5031597;28;20460;-69
2024/03/17 06:45:03;;;;;;;1.00;0.80;;;22.40;55.90;;;;;;5031493;28;20481;-68
2024/03/17 06:47:29;;;;;;;1.63;1.13;;;22.40;55.90;;;;;;5031410;28;20446;-69
2024/03/17 06:49:55;;;;;;;1.23;0.80;;;22.40;55.90;;;;;;5031772;28;20407;-69
2024/03/17 06:52:21;;;;;;;2.03;1.10;;;22.40;55.90;;;;;;5031416;28;20175;-69
2024/03/17 06:54:49;;;;;;;6.53;1.57;;;22.50;56.00;;;;;;5031313;28;20434;-69
2024/03/17 06:57:15;;;;;;;3.47;1.73;;;22.50;56.00;;;;;;5031333;28;20194;-70
2024/03/17 06:59:41;;;;;;;2.27;1.27;;;22.50;55.90;;;;;;5031390;28;20497;-69
2024/03/17 07:02:07;;;;;;;1.50;1.10;;;22.50;55.90;;;;;;5031395;28;20410;-69
2024/03/17 07:04:32;;;;;;;1.40;0.90;;;22.50;55.90;;;;;;5031205;28;20216;-68
2024/03/17 07:06:58;;;;;;;1.30;1.13;;;22.50;55.90;;;;;;5031129;28;20682;-70
2024/03/17 07:09:24;;;;;;;1.50;0.97;;;22.50;55.90;;;;;;5031154;28;20172;-68
2024/03/17 07:11:49;;;;;;;1.67;1.00;;;22.50;55.90;;;;;;5031113;28;20485;-70
2024/03/17 07:14:15;;;;;;;1.23;0.90;;;22.50;55.90;;;;;;5030852;28;20253;-69
2024/03/17 07:16:41;;;;;;;1.77;1.30;;;22.50;55.90;;;;;;5030879;28;20175;-70
2024/03/17 07:19:06;;;;;;;4.40;1.23;;;22.50;55.90;;;;;;5031067;28;20178;-69
2024/03/17 07:21:32;;;;;;;1.40;0.97;;;22.50;55.90;;;;;;5030847;28;20168;-69
2024/03/17 07:24:04;;;;;;;1.60;1.10;;;22.50;55.90;;;;;;5030438;28;20211;-69
2024/03/17 07:26:33;;;;;;;2.20;1.20;;;22.50;55.90;;;;;;5030778;28;20566;-69
2024/03/17 07:28:59;;;;;;;1.40;1.00;;;22.50;55.90;;;;;;5030566;28;20423;-69
2024/03/17 07:31:24;;;;;;;1.67;1.10;;;22.50;55.90;;;;;;5030720;28;20918;-68
2024/03/17 07:33:50;;;;;;;4.93;1.33;;;22.50;55.90;;;;;;5030710;28;20172;-70
2024/03/17 07:36:16;;;;;;;1.50;0.97;;;22.50;55.90;;;;;;5029672;28;20211;-67
2024/03/17 07:38:41;;;;;;;1.37;1.10;;;22.50;55.90;;;;;;5010953;28;20450;-69
2024/03/17 07:41:08;;;;;;;1.67;1.07;;;22.50;55.90;;;;;;5010888;28;20180;-69
2024/03/17 07:43:37;;;;;;;4.13;1.60;;;22.60;56.00;;;;;;5019963;28;20175;-70
2024/03/17 07:46:08;;;;;;;3.53;0.93;;;22.60;56.00;;;;;;5030390;28;20434;-69
2024/03/17 07:48:35;;;;;;;1.97;1.13;;;22.60;56.00;;;;;;5030517;28;20442;-68
2024/03/17 07:51:06;;;;;;;1.80;1.30;;;22.60;56.00;;;;;;5030615;28;20932;-69
2024/03/17 07:53:33;;;;;;;1.70;1.30;;;22.60;56.00;;;;;;5030651;28;20395;-70
2024/03/17 07:56:05;;;;;;;1.23;1.00;;;22.60;55.90;;;;;;5030198;28;20426;-69
2024/03/17 07:58:35;;;;;;;2.17;1.10;;;22.60;55.90;;;;;;5014372;28;20817;-70
2024/03/17 08:01:03;;;;;;;1.77;1.20;;;22.60;55.90;;;;;;5030233;28;20429;-70
2024/03/17 08:03:31;;;;;;;2.60;1.00;;;22.60;55.90;;;;;;5030287;28;20485;-69
2024/03/17 08:05:57;;;;;;;1.77;1.30;;;22.60;55.90;;;;;;5030103;28;20464;-69
2024/03/17 08:08:23;;;;;;;1.63;1.33;;;22.60;55.90;;;;;;5030175;28;20996;-69
2024/03/17 08:10:49;;;;;;;2.00;1.47;;;22.60;55.90;;;;;;5030447;28;20410;-69
2024/03/17 08:13:16;;;;;;;1.93;1.03;;;22.60;55.90;;;;;;5030426;28;20438;-70
2024/03/17 08:15:54;;;;;;;1.70;1.20;;;22.60;55.90;;;;;;5030034;28;20430;-69
2024/03/17 08:18:19;;;;;;;1.97;1.40;;;22.60;55.90;;;;;;5012284;28;20414;-69
2024/03/17 08:20:46;;;;;;;2.10;1.50;;;22.60;55.90;;;;;;5030122;28;20410;-69
2024/03/17 08:23:13;;;;;;;1.30;1.00;;;22.60;55.90;;;;;;5029976;28;20531;-68
2024/03/17 08:25:39;;;;;;;1.50;1.10;;;22.60;55.90;;;;;;5030163;28;20495;-69
2024/03/17 08:28:05;;;;;;;2.03;1.27;;;22.60;55.90;;;;;;5029997;28;20818;-69
2024/03/17 08:30:30;;;;;;;2.40;1.47;;;22.60;55.90;;;;;;5030037;28;20410;-68
2024/03/17 08:32:59;;;;;;;2.40;1.53;;;22.60;55.90;;;;;;5029927;28;20418;-69
2024/03/17 08:35:25;;;;;;;3.10;1.40;;;22.60;55.90;;;;;;5033136;28;20271;-69
2024/03/17 08:37:51;;;;;;;1.50;1.20;;;22.60;55.90;;;;;;5033777;28;21011;-70
2024/03/17 08:40:17;;;;;;;1.67;1.10;;;22.60;55.90;;;;;;5033633;28;20433;-70
2024/03/17 08:42:43;;;;;;;1.73;1.30;;;22.60;55.90;;;;;;5033671;28;20403;-72
2024/03/17 08:45:11;;;;;;;1.80;1.40;;;22.70;56.00;;;;;;5033511;28;21187;-71
2024/03/17 08:47:36;;;;;;;2.10;1.20;;;22.70;56.00;;;;;;5033745;28;20199;-71
2024/03/17 08:50:03;;;;;;;2.70;1.30;;;22.70;55.90;;;;;;5033784;28;20411;-71
2024/03/17 08:52:31;;;;;;;1.30;1.00;;;22.70;56.00;;;;;;5033919;28;20180;-71
2024/03/17 08:54:57;;;;;;;4.00;1.50;;;22.70;56.00;;;;;;5033593;28;20442;-71
2024/03/17 08:57:23;;;;;;;2.00;1.40;;;22.70;55.90;;;;;;5033523;28;20418;-70
2024/03/17 08:59:48;;;;;;;1.27;1.17;;;22.70;55.90;;;;;;5015540;28;20936;-70
2024/03/17 09:02:14;;;;;;;1.93;1.30;;;22.70;55.90;;;;;;5033388;28;20179;-71
2024/03/17 09:04:43;;;;;;;1.70;1.37;;;22.70;55.90;;;;;;5033144;28;20262;-70
2024/03/17 09:07:09;;;;;;;2.60;2.23;;;22.70;55.90;;;;;;5033196;28;20226;-70
2024/03/17 09:09:34;;;;;;;1.50;1.40;;;22.70;55.90;;;;;;5033141;28;20918;-70
2024/03/17 09:12:00;;;;;;;2.20;1.57;;;22.70;55.90;;;;;;5033274;28;20547;-70
2024/03/17 09:14:26;;;;;;;2.57;1.53;;;22.70;55.90;;;;;;5033061;28;20187;-70
2024/03/17 09:16:51;;;;;;;1.50;1.40;;;22.70;56.00;;;;;;5015252;28;20182;-70
2024/03/17 09:19:17;;;;;;;3.90;2.07;;;22.70;55.90;;;;;;5015196;28;20259;-71
2024/03/17 09:21:43;;;;;;;1.73;1.63;;;22.80;56.00;;;;;;5033144;28;20643;-70
2024/03/17 09:24:08;;;;;;;1.73;1.37;;;22.70;55.90;;;;;;5032834;28;20184;-68
2024/03/17 09:26:35;;;;;;;4.70;1.70;;;22.80;56.00;;;;;;5032899;28;20191;-70
2024/03/17 09:29:01;;;;;;;2.30;2.00;;;22.80;56.00;;;;;;5032886;28;20559;-70
2024/03/17 09:31:27;;;;;;;2.30;1.90;;;22.80;56.00;;;;;;5032825;28;20410;-69
2024/03/17 09:33:53;;;;;;;2.40;1.77;;;22.80;56.00;;;;;;5032943;28;20766;-73
2024/03/17 09:36:18;;;;;;;4.67;1.90;;;22.80;56.00;;;;;;5033259;28;20179;-73
2024/03/17 09:38:46;;;;;;;2.37;1.83;;;22.80;56.00;;;;;;5015374;28;20180;-72
2024/03/17 09:41:27;;;;;;;1.60;1.40;;;22.80;56.00;;;;;;5032894;28;20289;-70
2024/03/17 09:43:59;;;;;;;2.40;2.20;;;22.80;56.00;;;;;;5032558;28;20790;-71
2024/03/17 09:46:26;;;;;;;2.40;2.10;;;22.80;56.00;;;;;;5031560;28;20401;-70
2024/03/17 09:48:54;;;;;;;1.90;1.70;;;22.80;56.00;;;;;;5032345;28;20466;-70
2024/03/17 09:51:22;;;;;;;3.17;2.57;;;22.80;56.00;;;;;;5032431;28;20921;-71
2024/03/17 09:53:48;;;;;;;2.90;1.70;;;22.80;56.00;;;;;;5032547;28;21110;-70
2024/03/17 09:56:19;;;;;;;3.60;2.07;;;22.80;56.00;;;;;;5032320;28;20403;-70
2024/03/17 09:58:49;;;;;;;2.60;1.90;;;22.80;56.00;;;;;;5032305;28;20398;-70
2024/03/17 10:01:15;;;;;;;4.80;2.50;;;22.80;56.00;;;;;;5032451;28;20415;-69
2024/03/17 10:03:45;;;;;;;3.63;2.23;;;22.80;56.00;;;;;;5032060;28;20912;-68
2024/03/17 10:06:14;;;;;;;4.10;2.30;;;22.80;56.00;;;;;;5031995;28;20414;-71
2024/03/17 10:08:47;;;;;;;3.00;2.17;;;22.80;56.00;;;;;;5031958;28;20462;-69
2024/03/17 10:11:15;;;;;;;4.90;2.40;;;22.90;56.10;;;;;;5032294;28;20438;-70
2024/03/17 10:13:41;;;;;;;2.30;2.10;;;22.90;56.10;;;;;;5031784;28;20417;-70
2024/03/17 10:16:22;;;;;;;2.60;2.23;;;22.90;56.20;;;;;;5031913;28;20978;-70
2024/03/17 10:18:48;;;;;;;5.57;2.27;;;22.90;56.10;;;;;;5032253;28;20426;-70
2024/03/17 10:21:29;;;;;;;5.93;2.23;;;22.90;56.10;;;;;;5031756;28;20925;-70
2024/03/17 10:24:14;;;;;;;2.80;2.50;;;22.90;56.10;;;;;;5013738;28;20190;-72
2024/03/17 10:26:57;;;;;;;3.77;2.30;;;22.90;56.10;;;;;;5031936;28;20409;-68
2024/03/17 10:29:35;;;;;;;3.70;2.30;;;22.90;56.10;;;;;;5031173;28;20809;-69
2024/03/17 10:32:18;;;;;;;3.03;2.27;;;22.90;56.10;;;;;;5031035;28;20398;-69
2024/03/17 10:34:44;;;;;;;5.27;2.33;;;22.90;56.10;;;;;;5031458;28;20917;-69
2024/03/17 10:37:27;;;;;;;2.63;2.10;;;22.90;56.00;;;;;;5031435;28;20521;-68
2024/03/17 10:39:59;;;;;;;5.10;2.20;;;22.90;56.10;;;;;;5031440;28;20394;-70
2024/03/17 10:42:28;;;;;;;4.90;2.40;;;22.90;56.10;;;;;;5031392;28;20395;-69
2024/03/17 10:44:55;;;;;;;2.50;2.13;;;22.90;56.10;;;;;;5031167;28;20446;-69
2024/03/17 10:47:23;;;;;;;3.83;2.20;;;22.90;56.10;;;;;;5031167;28;20485;-67
2024/03/17 10:49:51;;;;;;;3.73;2.17;;;22.90;56.10;;;;;;5031380;28;20501;-70
2024/03/17 10:52:18;;;;;;;4.40;2.53;;;22.90;56.10;;;;;;5031196;28;20493;-69
2024/03/17 10:54:54;;;;;;;2.70;2.17;;;23.00;56.20;;;;;;5031067;28;20854;-69
2024/03/17 10:57:48;;;;;;;3.43;2.43;;;23.00;56.20;;;;;;5030793;28;20814;-67
2024/03/17 11:00:17;;;;;;;3.00;2.00;;;23.00;56.20;;;;;;5031078;28;20486;-69
2024/03/17 11:02:45;;;;;;;4.53;2.63;;;23.00;56.20;;;;;;5031273;28;20426;-70
2024/03/17 11:05:17;;;;;;;2.77;2.00;;;23.00;56.20;;;;;;5030861;28;20430;-70
2024/03/17 11:07:46;;;;;;;4.77;2.30;;;23.00;56.20;;;;;;5030878;28;20451;-69
2024/03/17 11:10:20;;;;;;;3.90;2.20;;;23.00;56.20;;;;;;5030913;28;20497;-70
2024/03/17 11:12:49;;;;;;;2.23;1.80;;;23.00;56.20;;;;;;5030852;28;20425;-70
2024/03/17 11:15:39;;;;;;;6.03;3.30;;;23.00;56.20;;;;;;5031027;28;20564;-70
2024/03/17 11:18:08;;;;;;;3.80;2.60;;;23.00;56.20;;;;;;5030763;28;20391;-70
2024/03/17 11:20:39;;;;;;;3.00;2.23;;;23.00;56.20;;;;;;5030749;28;20921;-68
2024/03/17 11:23:05;;;;;;;4.13;2.57;;;23.00;56.20;;;;;;5030774;28;20945;-71
2024/03/17 11:25:38;;;;;;;6.70;2.60;;;23.00;56.10;;;;;;5030544;28;20450;-69
2024/03/17 11:28:11;;;;;;;5.67;2.30;;;23.00;56.10;;;;;;5030609;28;20504;-69
2024/03/17 11:30:57;;;;;;;3.70;2.23;;;23.00;56.00;;;;;;5030594;28;20418;-70
2024/03/17 11:33:38;;;;;;;5.50;2.63;;;23.00;56.00;;;;;;5030434;28;20398;-69
2024/03/17 11:36:24;;;;;;;2.50;2.20;;;23.00;56.00;;;;;;5030476;28;20394;-69
2024/03/17 11:38:57;;;;;;;2.87;2.20;;;23.00;55.90;;;;;;5030262;28;20921;-69
2024/03/17 11:41:34;;;;;;;5.93;2.20;;;23.00;56.00;;;;;;5030339;28;20873;-69
2024/03/17 11:44:21;;;;;;;3.17;2.00;;;23.00;56.00;;;;;;5030351;28;20446;-68
2024/03/17 11:46:51;;;;;;;3.33;2.37;;;23.00;56.00;;;;;;5030203;28;20444;-69
2024/03/17 11:49:20;;;;;;;2.40;2.20;;;23.00;56.00;;;;;;5030199;28;20437;-70
2024/03/17 11:51:46;;;;;;;3.80;2.33;;;22.90;55.90;;;;;;5030259;28;21255;-70
2024/03/17 11:54:18;;;;;;;3.20;2.30;;;22.90;55.90;;;;;;5030103;28;20435;-68
2024/03/17 11:56:45;;;;;;;4.83;2.67;;;22.90;55.90;;;;;;5030120;28;20395;-69
2024/03/17 11:59:11;;;;;;;4.37;2.50;;;22.90;55.90;;;;;;5030011;28;20493;-70
2024/03/17 12:01:37;;;;;;;2.50;1.97;;;22.90;56.00;;;;;;5030389;28;20533;-70
2024/03/17 12:04:07;;;;;;;8.97;2.20;;;22.90;56.00;;;;;;5030004;28;20691;-69
2024/03/17 12:06:33;;;;;;;4.33;2.97;;;22.90;56.00;;;;;;5030104;28;20410;-70
2024/03/17 12:09:24;;;;;;;2.93;2.33;;;22.90;55.90;;;;;;5030911;28;20827;-70
2024/03/17 12:12:00;;;;;;;4.23;3.40;;;22.90;55.80;;;;;;5034172;28;20386;-69
2024/03/17 12:14:26;;;;;;;4.23;2.20;;;22.90;55.80;;;;;;5034004;28;20425;-70
2024/03/17 12:17:07;;;;;;;5.83;2.00;;;22.90;55.80;;;;;;5034026;28;20506;-68
2024/03/17 12:19:32;;;;;;;8.83;2.67;;;22.90;55.70;;;;;;5034021;28;20158;-68
2024/03/17 12:22:02;;;;;;;2.90;2.60;;;22.90;55.70;;;;;;5034015;28;20414;-69
2024/03/17 12:24:29;;;;;;;3.90;2.30;;;22.90;55.80;;;;;;5033838;28;20249;-69
2024/03/17 12:26:57;;;;;;;3.40;2.53;;;22.90;55.80;;;;;;5033787;28;20414;-69
2024/03/17 12:29:35;;;;;;;3.23;2.47;;;22.90;55.80;;;;;;5034011;28;20430;-69
2024/03/17 12:32:03;;;;;;;2.73;2.20;;;22.90;55.80;;;;;;5033737;28;20440;-70
2024/03/17 12:34:31;;;;;;;3.60;2.00;;;22.90;55.80;;;;;;5033597;28;20433;-70
2024/03/17 12:36:58;;;;;;;2.13;1.93;;;22.90;55.80;;;;;;5033694;28;20489;-69
2024/03/17 12:39:29;;;;;;;4.90;2.03;;;22.90;55.80;;;;;;5033572;28;20399;-70
2024/03/17 12:42:14;;;;;;;5.77;2.60;;;22.90;55.80;;;;;;5033618;28;20406;-68
2024/03/17 12:44:47;;;;;;;4.10;2.00;;;22.90;55.70;;;;;;5033361;28;20611;-69
2024/03/17 12:47:19;;;;;;;3.53;2.20;;;22.90;55.80;;;;;;5015547;28;21233;-70
2024/03/17 12:49:52;;;;;;;3.80;2.20;;;22.90;55.80;;;;;;5033475;28;20390;-69
2024/03/17 12:52:23;;;;;;;3.50;2.50;;;22.90;55.70;;;;;;5033419;28;20446;-69
2024/03/17 13:00:36;;;;;;;2.50;2.10;;;22.90;55.80;;;;;;5033529;28;20823;-70